sensor_id;sensor_type;location;lat;lon;timestamp;P1;durP1;ratioP1;P2;durP2;ratioP2
60869;SDS011;46710;43.680;4.132;2022-07-29T00:01:26;2.65;;;1.67;;
60869;SDS011;46710;43.680;4.132;2022-07-29T00:03:52;2.58;;;1.77;;
60869;SDS011;46710;43.680;4.132;2022-07-29T00:06:18;4.70;;;1.87;;
60869;SDS011;46710;43.680;4.132;2022-07-29T00:08:45;4.45;;;2.28;;
60869;SDS011;46710;43.680;4.132;2022-07-29T00:11:12;3.35;;;1.85;;
60869;SDS011;46710;43.680;4.132;2022-07-29T00:13:38;4.70;;;2.17;;
60869;SDS011;46710;43.680;4.132;2022-07-29T00:16:04;4.47;;;1.85;;
60869;SDS011;46710;43.680;4.132;2022-07-29T00:18:31;3.08;;;1.77;;
60869;SDS011;46710;43.680;4.132;2022-07-29T00:20:57;4.60;;;1.60;;
60869;SDS011;46710;43.680;4.132;2022-07-29T00:23:23;4.80;;;1.60;;
60869;SDS011;46710;43.680;4.132;2022-07-29T00:25:49;2.33;;;1.77;;
60869;SDS011;46710;43.680;4.132;2022-07-29T00:28:15;2.12;;;1.50;;
60869;SDS011;46710;43.680;4.132;2022-07-29T00:30:41;1.73;;;1.40;;
60869;SDS011;46710;43.680;4.132;2022-07-29T00:33:08;6.90;;;2.17;;
60869;SDS011;46710;43.680;4.132;2022-07-29T00:35:35;2.28;;;1.73;;
60869;SDS011;46710;43.680;4.132;2022-07-29T00:38:14;8.57;;;1.87;;
60869;SDS011;46710;43.680;4.132;2022-07-29T00:40:40;4.22;;;2.20;;
60869;SDS011;46710;43.680;4.132;2022-07-29T00:43:07;3.00;;;1.52;;
60869;SDS011;46710;43.680;4.132;2022-07-29T00:45:33;2.00;;;1.42;;
60869;SDS011;46710;43.680;4.132;2022-07-29T00:47:59;2.00;;;1.55;;
60869;SDS011;46710;43.680;4.132;2022-07-29T00:50:26;1.98;;;1.58;;
60869;SDS011;46710;43.680;4.132;2022-07-29T00:52:52;2.03;;;1.67;;
60869;SDS011;46710;43.680;4.132;2022-07-29T00:55:18;7.00;;;1.80;;
60869;SDS011;46710;43.680;4.132;2022-07-29T00:57:45;3.70;;;1.83;;
60869;SDS011;46710;43.680;4.132;2022-07-29T01:00:14;2.30;;;1.70;;
60869;SDS011;46710;43.680;4.132;2022-07-29T01:02:42;2.70;;;1.80;;
60869;SDS011;46710;43.680;4.132;2022-07-29T01:05:08;3.15;;;2.05;;
60869;SDS011;46710;43.680;4.132;2022-07-29T01:07:36;1.95;;;1.77;;
60869;SDS011;46710;43.680;4.132;2022-07-29T01:10:06;4.55;;;2.10;;
60869;SDS011;46710;43.680;4.132;2022-07-29T01:12:33;3.25;;;1.98;;
60869;SDS011;46710;43.680;4.132;2022-07-29T01:15:01;2.85;;;2.10;;
60869;SDS011;46710;43.680;4.132;2022-07-29T01:17:44;3.67;;;2.10;;
60869;SDS011;46710;43.680;4.132;2022-07-29T01:20:20;3.67;;;1.80;;
60869;SDS011;46710;43.680;4.132;2022-07-29T01:30:39;4.05;;;2.00;;
60869;SDS011;46710;43.680;4.132;2022-07-29T01:33:10;4.15;;;2.25;;
60869;SDS011;46710;43.680;4.132;2022-07-29T01:35:57;6.28;;;2.87;;
60869;SDS011;46710;43.680;4.132;2022-07-29T01:38:24;3.53;;;2.45;;
60869;SDS011;46710;43.680;4.132;2022-07-29T01:40:58;6.28;;;3.10;;
60869;SDS011;46710;43.680;4.132;2022-07-29T01:43:28;5.62;;;2.90;;
60869;SDS011;46710;43.680;4.132;2022-07-29T01:45:58;6.32;;;2.90;;
60869;SDS011;46710;43.680;4.132;2022-07-29T01:51:05;3.40;;;2.60;;
60869;SDS011;46710;43.680;4.132;2022-07-29T01:53:35;5.10;;;2.62;;
60869;SDS011;46710;43.680;4.132;2022-07-29T01:56:01;5.47;;;2.62;;
60869;SDS011;46710;43.680;4.132;2022-07-29T01:58:29;7.15;;;3.53;;
60869;SDS011;46710;43.680;4.132;2022-07-29T02:00:57;4.80;;;2.60;;
60869;SDS011;46710;43.680;4.132;2022-07-29T02:03:24;4.03;;;2.70;;
60869;SDS011;46710;43.680;4.132;2022-07-29T02:05:51;5.43;;;2.33;;
60869;SDS011;46710;43.680;4.132;2022-07-29T02:08:19;3.47;;;2.28;;
60869;SDS011;46710;43.680;4.132;2022-07-29T02:10:46;3.97;;;1.60;;
60869;SDS011;46710;43.680;4.132;2022-07-29T02:13:13;4.70;;;1.80;;
60869;SDS011;46710;43.680;4.132;2022-07-29T02:15:40;2.28;;;1.90;;
60869;SDS011;46710;43.680;4.132;2022-07-29T02:18:08;2.95;;;1.87;;
60869;SDS011;46710;43.680;4.132;2022-07-29T02:20:35;4.50;;;1.65;;
60869;SDS011;46710;43.680;4.132;2022-07-29T02:23:02;4.20;;;2.03;;
60869;SDS011;46710;43.680;4.132;2022-07-29T02:25:28;3.75;;;2.10;;
60869;SDS011;46710;43.680;4.132;2022-07-29T02:27:55;3.08;;;1.90;;
60869;SDS011;46710;43.680;4.132;2022-07-29T02:30:21;4.70;;;2.33;;
60869;SDS011;46710;43.680;4.132;2022-07-29T02:32:48;2.15;;;1.95;;
60869;SDS011;46710;43.680;4.132;2022-07-29T02:35:15;3.67;;;1.75;;
60869;SDS011;46710;43.680;4.132;2022-07-29T02:37:42;3.10;;;1.95;;
60869;SDS011;46710;43.680;4.132;2022-07-29T02:40:10;4.22;;;2.00;;
60869;SDS011;46710;43.680;4.132;2022-07-29T02:42:37;4.47;;;1.85;;
60869;SDS011;46710;43.680;4.132;2022-07-29T02:45:04;3.15;;;2.05;;
60869;SDS011;46710;43.680;4.132;2022-07-29T02:47:35;3.00;;;2.00;;
60869;SDS011;46710;43.680;4.132;2022-07-29T02:50:04;1.80;;;1.60;;
60869;SDS011;46710;43.680;4.132;2022-07-29T02:52:41;3.10;;;1.90;;
60869;SDS011;46710;43.680;4.132;2022-07-29T02:57:36;2.80;;;1.85;;
60869;SDS011;46710;43.680;4.132;2022-07-29T03:00:06;2.30;;;1.83;;
60869;SDS011;46710;43.680;4.132;2022-07-29T03:02:34;3.72;;;1.80;;
60869;SDS011;46710;43.680;4.132;2022-07-29T03:05:02;2.72;;;1.52;;
60869;SDS011;46710;43.680;4.132;2022-07-29T03:07:28;3.22;;;1.80;;
60869;SDS011;46710;43.680;4.132;2022-07-29T03:09:55;3.15;;;1.80;;
60869;SDS011;46710;43.680;4.132;2022-07-29T03:12:22;4.37;;;2.00;;
60869;SDS011;46710;43.680;4.132;2022-07-29T03:14:48;3.50;;;1.90;;
60869;SDS011;46710;43.680;4.132;2022-07-29T03:17:14;3.55;;;1.80;;
60869;SDS011;46710;43.680;4.132;2022-07-29T03:19:41;6.22;;;1.52;;
60869;SDS011;46710;43.680;4.132;2022-07-29T03:22:08;3.08;;;1.77;;
60869;SDS011;46710;43.680;4.132;2022-07-29T03:24:35;2.53;;;1.80;;
60869;SDS011;46710;43.680;4.132;2022-07-29T03:27:02;2.17;;;1.70;;
60869;SDS011;46710;43.680;4.132;2022-07-29T03:29:29;2.53;;;1.60;;
60869;SDS011;46710;43.680;4.132;2022-07-29T03:31:55;1.85;;;1.67;;
60869;SDS011;46710;43.680;4.132;2022-07-29T03:34:21;2.50;;;1.75;;
60869;SDS011;46710;43.680;4.132;2022-07-29T03:36:47;3.28;;;2.03;;
60869;SDS011;46710;43.680;4.132;2022-07-29T03:39:15;1.85;;;1.67;;
60869;SDS011;46710;43.680;4.132;2022-07-29T03:41:42;4.37;;;2.30;;
60869;SDS011;46710;43.680;4.132;2022-07-29T03:44:10;3.42;;;2.08;;
60869;SDS011;46710;43.680;4.132;2022-07-29T03:46:36;2.12;;;1.60;;
60869;SDS011;46710;43.680;4.132;2022-07-29T03:49:04;3.67;;;1.95;;
60869;SDS011;46710;43.680;4.132;2022-07-29T03:51:33;1.77;;;1.58;;
60869;SDS011;46710;43.680;4.132;2022-07-29T03:54:03;2.95;;;1.87;;
60869;SDS011;46710;43.680;4.132;2022-07-29T03:56:29;2.97;;;1.62;;
60869;SDS011;46710;43.680;4.132;2022-07-29T03:58:57;3.17;;;1.80;;
60869;SDS011;46710;43.680;4.132;2022-07-29T04:01:24;3.28;;;1.60;;
60869;SDS011;46710;43.680;4.132;2022-07-29T04:03:51;2.20;;;1.70;;
60869;SDS011;46710;43.680;4.132;2022-07-29T04:06:18;1.98;;;1.62;;
60869;SDS011;46710;43.680;4.132;2022-07-29T04:08:44;5.15;;;1.70;;
60869;SDS011;46710;43.680;4.132;2022-07-29T04:11:10;2.47;;;1.80;;
60869;SDS011;46710;43.680;4.132;2022-07-29T04:13:36;2.97;;;2.00;;
60869;SDS011;46710;43.680;4.132;2022-07-29T04:16:02;3.92;;;2.03;;
60869;SDS011;46710;43.680;4.132;2022-07-29T04:18:28;2.85;;;1.85;;
60869;SDS011;46710;43.680;4.132;2022-07-29T04:20:55;9.25;;;2.28;;
60869;SDS011;46710;43.680;4.132;2022-07-29T04:23:21;9.73;;;2.03;;
60869;SDS011;46710;43.680;4.132;2022-07-29T04:25:47;12.52;;;2.37;;
60869;SDS011;46710;43.680;4.132;2022-07-29T04:28:13;11.30;;;3.40;;
60869;SDS011;46710;43.680;4.132;2022-07-29T04:30:39;7.37;;;2.15;;
60869;SDS011;46710;43.680;4.132;2022-07-29T04:33:06;9.75;;;2.05;;
60869;SDS011;46710;43.680;4.132;2022-07-29T04:35:36;6.82;;;1.95;;
60869;SDS011;46710;43.680;4.132;2022-07-29T04:38:03;2.87;;;1.77;;
60869;SDS011;46710;43.680;4.132;2022-07-29T04:40:30;4.43;;;1.60;;
60869;SDS011;46710;43.680;4.132;2022-07-29T04:42:58;3.50;;;1.92;;
60869;SDS011;46710;43.680;4.132;2022-07-29T04:45:24;5.28;;;2.05;;
60869;SDS011;46710;43.680;4.132;2022-07-29T04:47:50;4.45;;;2.10;;
60869;SDS011;46710;43.680;4.132;2022-07-29T04:50:16;3.37;;;1.92;;
60869;SDS011;46710;43.680;4.132;2022-07-29T04:52:43;3.62;;;1.90;;
60869;SDS011;46710;43.680;4.132;2022-07-29T04:55:09;10.05;;;2.10;;
60869;SDS011;46710;43.680;4.132;2022-07-29T04:57:35;12.57;;;2.10;;
60869;SDS011;46710;43.680;4.132;2022-07-29T05:00:02;3.65;;;2.10;;
60869;SDS011;46710;43.680;4.132;2022-07-29T05:02:28;6.90;;;2.47;;
60869;SDS011;46710;43.680;4.132;2022-07-29T05:04:54;9.50;;;2.60;;
60869;SDS011;46710;43.680;4.132;2022-07-29T05:07:20;8.13;;;2.20;;
60869;SDS011;46710;43.680;4.132;2022-07-29T05:09:47;7.43;;;2.15;;
60869;SDS011;46710;43.680;4.132;2022-07-29T05:12:13;12.07;;;2.92;;
60869;SDS011;46710;43.680;4.132;2022-07-29T05:14:39;5.70;;;2.00;;
60869;SDS011;46710;43.680;4.132;2022-07-29T05:17:05;4.43;;;2.40;;
60869;SDS011;46710;43.680;4.132;2022-07-29T05:19:31;8.63;;;2.87;;
60869;SDS011;46710;43.680;4.132;2022-07-29T05:21:57;7.53;;;3.08;;
60869;SDS011;46710;43.680;4.132;2022-07-29T05:24:25;10.27;;;3.00;;
60869;SDS011;46710;43.680;4.132;2022-07-29T05:26:51;9.40;;;2.87;;
60869;SDS011;46710;43.680;4.132;2022-07-29T05:29:17;14.87;;;2.83;;
60869;SDS011;46710;43.680;4.132;2022-07-29T05:31:43;15.80;;;3.67;;
60869;SDS011;46710;43.680;4.132;2022-07-29T05:34:09;13.77;;;4.03;;
60869;SDS011;46710;43.680;4.132;2022-07-29T05:36:35;10.00;;;3.10;;
60869;SDS011;46710;43.680;4.132;2022-07-29T05:39:02;10.05;;;2.90;;
60869;SDS011;46710;43.680;4.132;2022-07-29T05:41:31;8.52;;;2.80;;
60869;SDS011;46710;43.680;4.132;2022-07-29T05:43:57;15.82;;;2.85;;
60869;SDS011;46710;43.680;4.132;2022-07-29T05:46:23;19.05;;;3.67;;
60869;SDS011;46710;43.680;4.132;2022-07-29T05:48:49;14.32;;;3.92;;
60869;SDS011;46710;43.680;4.132;2022-07-29T05:51:16;20.67;;;4.35;;
60869;SDS011;46710;43.680;4.132;2022-07-29T05:53:42;11.43;;;3.60;;
60869;SDS011;46710;43.680;4.132;2022-07-29T05:56:09;15.65;;;3.75;;
60869;SDS011;46710;43.680;4.132;2022-07-29T05:58:35;12.05;;;3.60;;
60869;SDS011;46710;43.680;4.132;2022-07-29T06:01:02;10.27;;;3.25;;
60869;SDS011;46710;43.680;4.132;2022-07-29T06:03:29;7.12;;;3.03;;
60869;SDS011;46710;43.680;4.132;2022-07-29T06:05:55;11.05;;;3.00;;
60869;SDS011;46710;43.680;4.132;2022-07-29T06:08:21;7.82;;;2.80;;
60869;SDS011;46710;43.680;4.132;2022-07-29T06:10:47;8.13;;;2.78;;
60869;SDS011;46710;43.680;4.132;2022-07-29T06:13:13;8.48;;;3.33;;
60869;SDS011;46710;43.680;4.132;2022-07-29T06:15:41;6.15;;;2.90;;
60869;SDS011;46710;43.680;4.132;2022-07-29T06:18:07;7.03;;;2.70;;
60869;SDS011;46710;43.680;4.132;2022-07-29T06:20:35;5.30;;;2.67;;
60869;SDS011;46710;43.680;4.132;2022-07-29T06:23:01;4.00;;;3.00;;
60869;SDS011;46710;43.680;4.132;2022-07-29T06:25:29;10.50;;;5.70;;
60869;SDS011;46710;43.680;4.132;2022-07-29T06:27:57;12.37;;;5.65;;
60869;SDS011;46710;43.680;4.132;2022-07-29T06:30:23;13.55;;;9.55;;
60869;SDS011;46710;43.680;4.132;2022-07-29T06:32:49;14.02;;;7.65;;
60869;SDS011;46710;43.680;4.132;2022-07-29T06:35:16;5.50;;;4.03;;
60869;SDS011;46710;43.680;4.132;2022-07-29T06:37:42;8.35;;;2.87;;
60869;SDS011;46710;43.680;4.132;2022-07-29T06:40:08;4.32;;;2.75;;
60869;SDS011;46710;43.680;4.132;2022-07-29T06:43:13;6.53;;;2.85;;
60869;SDS011;46710;43.680;4.132;2022-07-29T06:45:39;9.50;;;3.33;;
60869;SDS011;46710;43.680;4.132;2022-07-29T06:48:06;9.57;;;3.05;;
60869;SDS011;46710;43.680;4.132;2022-07-29T06:50:32;8.27;;;6.72;;
60869;SDS011;46710;43.680;4.132;2022-07-29T06:52:59;9.32;;;5.53;;
60869;SDS011;46710;43.680;4.132;2022-07-29T06:55:25;4.85;;;4.03;;
60869;SDS011;46710;43.680;4.132;2022-07-29T06:57:54;7.43;;;3.58;;
60869;SDS011;46710;43.680;4.132;2022-07-29T07:00:21;3.33;;;3.00;;
60869;SDS011;46710;43.680;4.132;2022-07-29T07:02:47;4.78;;;3.05;;
60869;SDS011;46710;43.680;4.132;2022-07-29T07:05:14;7.03;;;3.00;;
60869;SDS011;46710;43.680;4.132;2022-07-29T07:07:40;4.22;;;2.90;;
60869;SDS011;46710;43.680;4.132;2022-07-29T07:10:07;4.65;;;2.78;;
60869;SDS011;46710;43.680;4.132;2022-07-29T07:12:33;5.30;;;2.80;;
60869;SDS011;46710;43.680;4.132;2022-07-29T07:14:59;6.65;;;3.15;;
60869;SDS011;46710;43.680;4.132;2022-07-29T07:17:26;3.00;;;2.53;;
60869;SDS011;46710;43.680;4.132;2022-07-29T07:19:52;2.78;;;2.50;;
60869;SDS011;46710;43.680;4.132;2022-07-29T07:22:18;5.50;;;3.10;;
60869;SDS011;46710;43.680;4.132;2022-07-29T07:24:44;4.37;;;3.12;;
60869;SDS011;46710;43.680;4.132;2022-07-29T07:27:10;4.32;;;2.90;;
60869;SDS011;46710;43.680;4.132;2022-07-29T07:29:36;6.25;;;3.40;;
60869;SDS011;46710;43.680;4.132;2022-07-29T07:32:06;7.12;;;3.10;;
60869;SDS011;46710;43.680;4.132;2022-07-29T07:34:32;4.32;;;3.53;;
60869;SDS011;46710;43.680;4.132;2022-07-29T07:36:58;5.53;;;3.35;;
60869;SDS011;46710;43.680;4.132;2022-07-29T07:39:24;4.95;;;3.03;;
60869;SDS011;46710;43.680;4.132;2022-07-29T07:41:51;5.28;;;3.70;;
60869;SDS011;46710;43.680;4.132;2022-07-29T07:44:17;6.05;;;2.90;;
60869;SDS011;46710;43.680;4.132;2022-07-29T07:46:43;7.03;;;3.47;;
60869;SDS011;46710;43.680;4.132;2022-07-29T07:49:10;8.57;;;4.40;;
60869;SDS011;46710;43.680;4.132;2022-07-29T07:51:36;7.72;;;4.40;;
60869;SDS011;46710;43.680;4.132;2022-07-29T07:54:03;10.68;;;4.78;;
60869;SDS011;46710;43.680;4.132;2022-07-29T07:56:29;9.02;;;4.45;;
60869;SDS011;46710;43.680;4.132;2022-07-29T07:58:56;8.88;;;4.10;;
60869;SDS011;46710;43.680;4.132;2022-07-29T08:01:22;8.02;;;4.20;;
60869;SDS011;46710;43.680;4.132;2022-07-29T08:03:51;7.53;;;4.50;;
60869;SDS011;46710;43.680;4.132;2022-07-29T08:06:17;5.50;;;4.20;;
60869;SDS011;46710;43.680;4.132;2022-07-29T08:08:43;5.45;;;4.20;;
60869;SDS011;46710;43.680;4.132;2022-07-29T08:11:09;7.25;;;4.18;;
60869;SDS011;46710;43.680;4.132;2022-07-29T08:13:36;8.70;;;4.00;;
60869;SDS011;46710;43.680;4.132;2022-07-29T08:16:03;5.50;;;3.75;;
60869;SDS011;46710;43.680;4.132;2022-07-29T08:18:40;7.53;;;4.00;;
60869;SDS011;46710;43.680;4.132;2022-07-29T08:21:06;6.28;;;3.53;;
60869;SDS011;46710;43.680;4.132;2022-07-29T08:23:32;11.35;;;4.30;;
60869;SDS011;46710;43.680;4.132;2022-07-29T08:26:10;8.40;;;4.60;;
60869;SDS011;46710;43.680;4.132;2022-07-29T08:28:40;5.35;;;4.00;;
60869;SDS011;46710;43.680;4.132;2022-07-29T08:31:10;6.30;;;3.92;;
60869;SDS011;46710;43.680;4.132;2022-07-29T08:33:36;6.65;;;3.80;;
60869;SDS011;46710;43.680;4.132;2022-07-29T08:36:03;4.47;;;3.60;;
60869;SDS011;46710;43.680;4.132;2022-07-29T08:38:29;9.93;;;4.22;;
60869;SDS011;46710;43.680;4.132;2022-07-29T08:40:55;7.78;;;4.03;;
60869;SDS011;46710;43.680;4.132;2022-07-29T08:43:21;5.70;;;3.80;;
60869;SDS011;46710;43.680;4.132;2022-07-29T08:45:49;5.90;;;3.78;;
60869;SDS011;46710;43.680;4.132;2022-07-29T08:48:16;5.00;;;3.87;;
60869;SDS011;46710;43.680;4.132;2022-07-29T08:50:42;5.82;;;4.00;;
60869;SDS011;46710;43.680;4.132;2022-07-29T08:53:12;8.88;;;4.10;;
60869;SDS011;46710;43.680;4.132;2022-07-29T08:55:40;5.43;;;3.92;;
60869;SDS011;46710;43.680;4.132;2022-07-29T08:58:06;5.40;;;3.78;;
60869;SDS011;46710;43.680;4.132;2022-07-29T09:00:33;5.87;;;3.87;;
60869;SDS011;46710;43.680;4.132;2022-07-29T09:03:00;5.62;;;3.97;;
60869;SDS011;46710;43.680;4.132;2022-07-29T09:05:27;6.10;;;4.05;;
60869;SDS011;46710;43.680;4.132;2022-07-29T09:07:54;6.22;;;4.00;;
60869;SDS011;46710;43.680;4.132;2022-07-29T09:10:21;4.62;;;3.40;;
60869;SDS011;46710;43.680;4.132;2022-07-29T09:12:47;3.87;;;3.47;;
60869;SDS011;46710;43.680;4.132;2022-07-29T09:15:14;4.70;;;3.50;;
60869;SDS011;46710;43.680;4.132;2022-07-29T09:20:10;3.92;;;3.50;;
60869;SDS011;46710;43.680;4.132;2022-07-29T09:22:36;5.53;;;3.65;;
60869;SDS011;46710;43.680;4.132;2022-07-29T09:25:03;4.95;;;3.60;;
60869;SDS011;46710;43.680;4.132;2022-07-29T09:27:29;4.70;;;3.55;;
60869;SDS011;46710;43.680;4.132;2022-07-29T09:29:59;4.05;;;3.67;;
60869;SDS011;46710;43.680;4.132;2022-07-29T09:32:25;5.82;;;3.30;;
60869;SDS011;46710;43.680;4.132;2022-07-29T09:35:13;5.50;;;3.35;;
60869;SDS011;46710;43.680;4.132;2022-07-29T09:37:40;4.90;;;3.40;;
60869;SDS011;46710;43.680;4.132;2022-07-29T09:40:17;3.62;;;3.17;;
60869;SDS011;46710;43.680;4.132;2022-07-29T09:42:44;6.93;;;3.58;;
60869;SDS011;46710;43.680;4.132;2022-07-29T09:45:11;5.47;;;3.50;;
60869;SDS011;46710;43.680;4.132;2022-07-29T09:47:41;4.70;;;3.50;;
60869;SDS011;46710;43.680;4.132;2022-07-29T09:50:10;4.50;;;3.70;;
60869;SDS011;46710;43.680;4.132;2022-07-29T09:52:46;6.95;;;4.07;;
60869;SDS011;46710;43.680;4.132;2022-07-29T09:55:13;8.65;;;3.65;;
60869;SDS011;46710;43.680;4.132;2022-07-29T09:57:39;4.87;;;3.75;;
60869;SDS011;46710;43.680;4.132;2022-07-29T10:00:07;6.65;;;3.97;;
60869;SDS011;46710;43.680;4.132;2022-07-29T10:02:35;11.88;;;4.25;;
60869;SDS011;46710;43.680;4.132;2022-07-29T10:05:03;7.07;;;4.35;;
60869;SDS011;46710;43.680;4.132;2022-07-29T10:10:17;9.65;;;4.35;;
60869;SDS011;46710;43.680;4.132;2022-07-29T10:13:04;9.25;;;4.12;;
60869;SDS011;46710;43.680;4.132;2022-07-29T10:15:32;7.22;;;4.30;;
60869;SDS011;46710;43.680;4.132;2022-07-29T10:17:59;7.12;;;3.90;;
60869;SDS011;46710;43.680;4.132;2022-07-29T10:20:26;6.40;;;3.78;;
60869;SDS011;46710;43.680;4.132;2022-07-29T10:22:53;7.45;;;4.07;;
60869;SDS011;46710;43.680;4.132;2022-07-29T10:25:21;9.82;;;4.22;;
60869;SDS011;46710;43.680;4.132;2022-07-29T10:27:48;6.57;;;3.62;;
60869;SDS011;46710;43.680;4.132;2022-07-29T10:30:16;4.15;;;3.65;;
60869;SDS011;46710;43.680;4.132;2022-07-29T10:35:18;5.28;;;3.47;;
60869;SDS011;46710;43.680;4.132;2022-07-29T10:43:14;4.93;;;3.50;;
60869;SDS011;46710;43.680;4.132;2022-07-29T10:45:42;5.03;;;3.67;;
60869;SDS011;46710;43.680;4.132;2022-07-29T10:48:09;4.85;;;3.47;;
60869;SDS011;46710;43.680;4.132;2022-07-29T10:53:21;6.93;;;4.05;;
60869;SDS011;46710;43.680;4.132;2022-07-29T10:55:48;5.30;;;3.92;;
60869;SDS011;46710;43.680;4.132;2022-07-29T11:00:42;5.43;;;3.72;;
60869;SDS011;46710;43.680;4.132;2022-07-29T11:03:08;7.10;;;4.47;;
60869;SDS011;46710;43.680;4.132;2022-07-29T11:05:51;5.75;;;4.28;;
60869;SDS011;46710;43.680;4.132;2022-07-29T11:08:19;5.05;;;4.07;;
60869;SDS011;46710;43.680;4.132;2022-07-29T11:10:48;4.25;;;3.95;;
60869;SDS011;46710;43.680;4.132;2022-07-29T11:15:59;4.05;;;3.62;;
60869;SDS011;46710;43.680;4.132;2022-07-29T11:18:25;4.03;;;3.65;;
60869;SDS011;46710;43.680;4.132;2022-07-29T11:20:54;3.85;;;3.55;;
60869;SDS011;46710;43.680;4.132;2022-07-29T11:28:19;4.25;;;3.75;;
60869;SDS011;46710;43.680;4.132;2022-07-29T11:30:47;4.82;;;3.67;;
60869;SDS011;46710;43.680;4.132;2022-07-29T11:33:27;3.85;;;3.50;;
60869;SDS011;46710;43.680;4.132;2022-07-29T11:36:27;4.20;;;3.53;;
60869;SDS011;46710;43.680;4.132;2022-07-29T11:38:46;4.18;;;3.22;;
60869;SDS011;46710;43.680;4.132;2022-07-29T11:44:14;5.82;;;3.28;;
60869;SDS011;46710;43.680;4.132;2022-07-29T11:49:18;3.30;;;3.00;;
60869;SDS011;46710;43.680;4.132;2022-07-29T11:51:50;3.65;;;3.05;;
60869;SDS011;46710;43.680;4.132;2022-07-29T11:54:16;4.17;;;3.00;;
60869;SDS011;46710;43.680;4.132;2022-07-29T11:56:47;4.87;;;3.33;;
60869;SDS011;46710;43.680;4.132;2022-07-29T11:59:13;3.30;;;3.00;;
60869;SDS011;46710;43.680;4.132;2022-07-29T12:01:51;4.53;;;3.00;;
60869;SDS011;46710;43.680;4.132;2022-07-29T12:04:17;3.78;;;3.00;;
60869;SDS011;46710;43.680;4.132;2022-07-29T12:06:48;3.35;;;3.05;;
60869;SDS011;46710;43.680;4.132;2022-07-29T12:09:14;3.60;;;3.00;;
60869;SDS011;46710;43.680;4.132;2022-07-29T12:11:40;3.75;;;3.05;;
60869;SDS011;46710;43.680;4.132;2022-07-29T12:14:06;4.15;;;3.25;;
60869;SDS011;46710;43.680;4.132;2022-07-29T12:16:35;3.95;;;3.20;;
60869;SDS011;46710;43.680;4.132;2022-07-29T12:19:02;3.90;;;3.50;;
60869;SDS011;46710;43.680;4.132;2022-07-29T12:21:29;4.72;;;3.15;;
60869;SDS011;46710;43.680;4.132;2022-07-29T12:24:08;3.35;;;3.05;;
60869;SDS011;46710;43.680;4.132;2022-07-29T12:26:34;3.72;;;3.33;;
60869;SDS011;46710;43.680;4.132;2022-07-29T12:29:01;3.60;;;3.30;;
60869;SDS011;46710;43.680;4.132;2022-07-29T12:31:28;3.87;;;3.12;;
60869;SDS011;46710;43.680;4.132;2022-07-29T12:33:54;4.53;;;3.30;;
60869;SDS011;46710;43.680;4.132;2022-07-29T12:36:20;6.00;;;4.97;;
60869;SDS011;46710;43.680;4.132;2022-07-29T12:38:47;5.97;;;5.32;;
60869;SDS011;46710;43.680;4.132;2022-07-29T12:41:13;11.68;;;9.75;;
60869;SDS011;46710;43.680;4.132;2022-07-29T12:43:47;11.30;;;9.05;;
60869;SDS011;46710;43.680;4.132;2022-07-29T12:46:17;6.00;;;5.28;;
60869;SDS011;46710;43.680;4.132;2022-07-29T12:48:43;5.40;;;4.10;;
60869;SDS011;46710;43.680;4.132;2022-07-29T12:51:09;5.43;;;3.60;;
60869;SDS011;46710;43.680;4.132;2022-07-29T12:53:37;4.87;;;3.37;;
60869;SDS011;46710;43.680;4.132;2022-07-29T12:56:04;3.42;;;3.08;;
60869;SDS011;46710;43.680;4.132;2022-07-29T13:03:25;4.87;;;3.00;;
60869;SDS011;46710;43.680;4.132;2022-07-29T13:05:51;4.50;;;2.95;;
60869;SDS011;46710;43.680;4.132;2022-07-29T13:08:17;3.50;;;2.92;;
60869;SDS011;46710;43.680;4.132;2022-07-29T13:10:45;3.40;;;3.00;;
60869;SDS011;46710;43.680;4.132;2022-07-29T13:13:12;3.42;;;2.90;;
60869;SDS011;46710;43.680;4.132;2022-07-29T13:15:39;3.45;;;3.15;;
60869;SDS011;46710;43.680;4.132;2022-07-29T13:18:25;3.33;;;3.03;;
60869;SDS011;46710;43.680;4.132;2022-07-29T13:20:52;3.17;;;2.90;;
60869;SDS011;46710;43.680;4.132;2022-07-29T13:23:18;4.18;;;2.90;;
60869;SDS011;46710;43.680;4.132;2022-07-29T13:25:44;2.67;;;2.42;;
60869;SDS011;46710;43.680;4.132;2022-07-29T13:28:10;5.35;;;3.00;;
60869;SDS011;46710;43.680;4.132;2022-07-29T13:30:37;4.25;;;2.60;;
60869;SDS011;46710;43.680;4.132;2022-07-29T13:33:03;4.62;;;2.62;;
60869;SDS011;46710;43.680;4.132;2022-07-29T13:35:29;3.92;;;2.70;;
60869;SDS011;46710;43.680;4.132;2022-07-29T13:37:55;3.22;;;2.80;;
60869;SDS011;46710;43.680;4.132;2022-07-29T13:40:21;3.00;;;2.58;;
60869;SDS011;46710;43.680;4.132;2022-07-29T13:42:48;2.85;;;2.58;;
60869;SDS011;46710;43.680;4.132;2022-07-29T13:45:14;3.42;;;2.80;;
60869;SDS011;46710;43.680;4.132;2022-07-29T13:47:40;2.85;;;2.55;;
60869;SDS011;46710;43.680;4.132;2022-07-29T13:50:07;5.65;;;3.65;;
60869;SDS011;46710;43.680;4.132;2022-07-29T13:52:34;3.97;;;3.58;;
60869;SDS011;46710;43.680;4.132;2022-07-29T13:55:01;4.32;;;3.20;;
60869;SDS011;46710;43.680;4.132;2022-07-29T13:57:27;3.50;;;3.20;;
60869;SDS011;46710;43.680;4.132;2022-07-29T13:59:54;3.00;;;2.70;;
60869;SDS011;46710;43.680;4.132;2022-07-29T14:02:20;2.80;;;2.60;;
60869;SDS011;46710;43.680;4.132;2022-07-29T14:04:46;3.87;;;2.62;;
60869;SDS011;46710;43.680;4.132;2022-07-29T14:07:13;3.42;;;2.58;;
60869;SDS011;46710;43.680;4.132;2022-07-29T14:09:39;2.60;;;2.40;;
60869;SDS011;46710;43.680;4.132;2022-07-29T14:12:05;2.87;;;2.67;;
60869;SDS011;46710;43.680;4.132;2022-07-29T14:14:31;2.90;;;2.40;;
60869;SDS011;46710;43.680;4.132;2022-07-29T14:16:58;2.60;;;2.40;;
60869;SDS011;46710;43.680;4.132;2022-07-29T14:19:24;2.20;;;2.10;;
60869;SDS011;46710;43.680;4.132;2022-07-29T14:21:50;2.10;;;2.00;;
60869;SDS011;46710;43.680;4.132;2022-07-29T14:24:16;4.40;;;2.40;;
60869;SDS011;46710;43.680;4.132;2022-07-29T14:26:42;3.67;;;2.45;;
60869;SDS011;46710;43.680;4.132;2022-07-29T14:29:08;7.20;;;2.80;;
60869;SDS011;46710;43.680;4.132;2022-07-29T14:31:35;3.95;;;2.50;;
60869;SDS011;46710;43.680;4.132;2022-07-29T14:34:01;3.90;;;2.80;;
60869;SDS011;46710;43.680;4.132;2022-07-29T14:36:27;5.18;;;2.70;;
60869;SDS011;46710;43.680;4.132;2022-07-29T14:38:53;5.57;;;2.83;;
60869;SDS011;46710;43.680;4.132;2022-07-29T14:41:19;3.35;;;2.60;;
60869;SDS011;46710;43.680;4.132;2022-07-29T14:43:46;3.17;;;2.40;;
60869;SDS011;46710;43.680;4.132;2022-07-29T14:46:12;4.70;;;2.62;;
60869;SDS011;46710;43.680;4.132;2022-07-29T14:48:38;3.70;;;2.75;;
60869;SDS011;46710;43.680;4.132;2022-07-29T14:51:05;5.05;;;2.87;;
60869;SDS011;46710;43.680;4.132;2022-07-29T14:53:31;3.95;;;2.72;;
60869;SDS011;46710;43.680;4.132;2022-07-29T14:55:57;4.07;;;2.90;;
60869;SDS011;46710;43.680;4.132;2022-07-29T14:58:23;3.75;;;2.35;;
60869;SDS011;46710;43.680;4.132;2022-07-29T15:00:50;4.70;;;2.47;;
60869;SDS011;46710;43.680;4.132;2022-07-29T15:03:16;3.00;;;2.50;;
60869;SDS011;46710;43.680;4.132;2022-07-29T15:05:42;8.13;;;2.47;;
60869;SDS011;46710;43.680;4.132;2022-07-29T15:08:08;2.62;;;2.30;;
60869;SDS011;46710;43.680;4.132;2022-07-29T15:10:34;3.35;;;2.58;;
60869;SDS011;46710;43.680;4.132;2022-07-29T15:13:01;2.67;;;2.17;;
60869;SDS011;46710;43.680;4.132;2022-07-29T15:15:27;4.53;;;2.65;;
60869;SDS011;46710;43.680;4.132;2022-07-29T15:17:53;5.80;;;3.08;;
60869;SDS011;46710;43.680;4.132;2022-07-29T15:20:19;4.35;;;2.70;;
60869;SDS011;46710;43.680;4.132;2022-07-29T15:22:46;6.50;;;2.90;;
60869;SDS011;46710;43.680;4.132;2022-07-29T15:25:12;4.70;;;3.42;;
60869;SDS011;46710;43.680;4.132;2022-07-29T15:27:38;5.87;;;2.90;;
60869;SDS011;46710;43.680;4.132;2022-07-29T15:30:05;5.97;;;3.00;;
60869;SDS011;46710;43.680;4.132;2022-07-29T15:32:31;3.80;;;3.10;;
60869;SDS011;46710;43.680;4.132;2022-07-29T15:34:57;4.22;;;3.30;;
60869;SDS011;46710;43.680;4.132;2022-07-29T15:37:23;4.72;;;3.03;;